Thunder radar more information blitzortung!


Radar de pluja more information rain snow radar


Visita la nostra xarxa de llocs de meteo:

Template documentation
and downloads

And another site



No particular awareness of the weather is required.    There are no Weather-warnings

Pagina Historial Weather Underground text

Diari Resum Agost 26, 2017 Unitats:  Mètric    Imperial   Tant
« Previous Dia
SegĂźent Dia »
Diari Setmana Mensual Anual Personalitzada
  Maxima: Minima: Media:
Temperatura: 31.6 °C 20.5 °C 26.7 °C
Punt de rosada: 19.6 °C 17.1 °C 18.6 °C
Humitat: 83 % 45 % 62 %
Wind Speed: 20.4 km/h 0.0 km/h 7 km/h
RĂ fegues de vent: 20.4 km/h - -
Vent:- - SE
Pression baro: 1017.8 hPa 1013.8 hPa -
Precipitacions: 0.0 mm    
Historical Graphs
 
 
Dades de taula per Agost 26, 2017
Temps Temperatura Punt de rosada Pression baro Vent Wind Speed RĂ fegues de vent Humitat Rainfall Rate (Hourly)
00:00 23.2 °C 17.4 °C 1017.8 hPa West 3.7 km/h 4.7 km/h 70 % 0.0 mm
00:05 23.3 °C 17.7 °C 1017.8 hPa West 4.7 km/h 4.7 km/h 71 % 0.0 mm
00:10 23.2 °C 17.7 °C 1017.8 hPa West 5.6 km/h 5.6 km/h 71 % 0.0 mm
00:15 23.3 °C 17.9 °C 1016.8 hPa WSW 3.7 km/h 3.7 km/h 72 % 0.0 mm
00:20 23.2 °C 17.9 °C 1016.8 hPa NE 3.7 km/h   72 % 0.0 mm
00:30 21.6 °C 17.8 °C 1014.8 hPa Calm   3.2 km/h 79 % 0.0 mm
00:40 21.5 °C 17.7 °C 1014.8 hPa Calm     79 % 0.0 mm
00:50 21.4 °C 17.6 °C 1014.8 hPa Calm     79 % 0.0 mm
01:00 21.3 °C 17.5 °C 1014.8 hPa WNW 1.6 km/h 1.6 km/h 79 % 0.0 mm
01:10 21.3 °C 17.7 °C 1014.8 hPa NE 1.6 km/h   80 % 0.0 mm
01:20 21.2 °C 17.6 °C 1014.8 hPa Calm     80 % 0.0 mm
01:30 21.1 °C 17.5 °C 1013.8 hPa Calm     80 % 0.0 mm
01:40 21.0 °C 17.4 °C 1013.8 hPa Calm     80 % 0.0 mm
01:50 21.0 °C 17.2 °C 1014.8 hPa WNW 3.2 km/h 3.2 km/h 79 % 0.0 mm
02:00 20.9 °C 17.5 °C 1014.8 hPa Calm   3.2 km/h 81 % 0.0 mm
02:10 21.0 °C 17.4 °C 1014.8 hPa Calm   3.2 km/h 80 % 0.0 mm
02:20 21.2 °C 17.8 °C 1014.8 hPa Calm     81 % 0.0 mm
02:30 21.3 °C 17.9 °C 1014.8 hPa West 1.6 km/h 3.2 km/h 81 % 0.0 mm
02:40 21.3 °C 17.7 °C 1014.8 hPa ENE 1.6 km/h 3.2 km/h 80 % 0.0 mm
02:50 21.1 °C 17.5 °C 1014.8 hPa NE 1.6 km/h 3.2 km/h 80 % 0.0 mm
03:00 21.1 °C 17.5 °C 1014.8 hPa Calm     80 % 0.0 mm
03:10 20.9 °C 17.5 °C 1014.8 hPa Calm     81 % 0.0 mm
03:20 20.8 °C 17.4 °C 1015.8 hPa East 1.6 km/h 3.2 km/h 81 % 0.0 mm
03:30 20.7 °C 17.3 °C 1014.8 hPa SSW 1.6 km/h 1.6 km/h 81 % 0.0 mm
03:40 20.6 °C 17.4 °C 1014.8 hPa Calm   1.6 km/h 82 % 0.0 mm
03:50 20.6 °C 17.4 °C 1015.8 hPa WSW 1.6 km/h 3.2 km/h 82 % 0.0 mm
04:00 20.5 °C 17.3 °C 1014.8 hPa WSW 3.2 km/h 3.2 km/h 82 % 0.0 mm
04:10 20.8 °C 17.8 °C 1014.8 hPa Calm   1.6 km/h 83 % 0.0 mm
04:20 21.3 °C 18.1 °C 1014.8 hPa SSW 1.6 km/h 3.2 km/h 82 % 0.0 mm
04:30 21.8 °C 18.2 °C 1015.8 hPa SE 1.6 km/h 3.2 km/h 80 % 0.0 mm
04:40 22.3 °C 18.5 °C 1015.8 hPa Calm   3.2 km/h 79 % 0.0 mm
04:50 22.7 °C 18.7 °C 1014.8 hPa Calm   3.2 km/h 78 % 0.0 mm
05:00 22.9 °C 18.4 °C 1015.8 hPa NNE 3.2 km/h 6.4 km/h 76 % 0.0 mm
05:10 23.2 °C 18.1 °C 1015.8 hPa NE 3.2 km/h 9.7 km/h 73 % 0.0 mm
05:20 23.5 °C 17.9 °C 1014.8 hPa NE 4.8 km/h 9.7 km/h 71 % 0.0 mm
05:30 24.1 °C 18.1 °C 1014.8 hPa NE 4.8 km/h 6.4 km/h 69 % 0.0 mm
05:40 24.3 °C 17.8 °C 1014.8 hPa NE 3.2 km/h 12.9 km/h 67 % 0.0 mm
05:50 25.0 °C 17.9 °C 1015.8 hPa NNE 4.8 km/h 9.7 km/h 65 % 0.0 mm
10:52 26.8 °C 19.2 °C 1015.8 hPa NE 5.6 km/h 5.6 km/h 63 % 0.0 mm
10:53 26.8 °C 19.2 °C 1015.8 hPa East 5.6 km/h 5.6 km/h 63 % 0.0 mm
10:55 27.0 °C 19.1 °C 1015.8 hPa NNE 5.6 km/h 5.6 km/h 62 % 0.0 mm
11:00 27.0 °C 18.8 °C 1015.8 hPa ENE 3.9 km/h 3.9 km/h 61 % 0.0 mm
11:05 27.0 °C 18.6 °C 1015.8 hPa NE 7.4 km/h 7.4 km/h 60 % 0.0 mm
11:10 27.1 °C 18.7 °C 1015.8 hPa WNW 3.7 km/h 3.9 km/h 60 % 0.0 mm
11:15 27.6 °C 19.1 °C 1015.8 hPa West 3.2 km/h 3.2 km/h 60 % 0.0 mm
11:20 28.3 °C 19.5 °C 1015.8 hPa NE 5.6 km/h 5.6 km/h 59 % 0.0 mm
11:25 28.7 °C 19.3 °C 1015.8 hPa NE 3.9 km/h 3.9 km/h 57 % 0.0 mm
11:30 28.6 °C 19.2 °C 1015.8 hPa ENE 3.7 km/h 3.7 km/h 57 % 0.0 mm
11:35 28.7 °C 18.8 °C 1015.8 hPa ESE 5.8 km/h 5.8 km/h 55 % 0.0 mm
11:40 28.6 °C 18.1 °C 1015.8 hPa NNE 5.6 km/h 5.6 km/h 53 % 0.0 mm
11:45 28.9 °C 18.3 °C 1014.8 hPa East 7.4 km/h 7.4 km/h 53 % 0.0 mm
11:50 29.6 °C 19.0 °C 1014.8 hPa ENE 3.9 km/h 3.9 km/h 53 % 0.0 mm
11:55 29.0 °C 17.2 °C 1014.8 hPa SSE 9.3 km/h 9.3 km/h 49 % 0.0 mm
12:00 29.2 °C 17.7 °C 1014.8 hPa NE 5.6 km/h 5.6 km/h 50 % 0.0 mm
12:05 29.9 °C 18.1 °C 1014.8 hPa SE 5.6 km/h 5.6 km/h 49 % 0.0 mm
12:10 30.2 °C 17.7 °C 1014.8 hPa SSE 7.4 km/h 7.4 km/h 47 % 0.0 mm
12:15 30.5 °C 18.2 °C 1014.8 hPa SSE 3.7 km/h 3.7 km/h 48 % 0.0 mm
12:20 30.7 °C 18.8 °C 1014.8 hPa SSW 7.4 km/h 7.4 km/h 49 % 0.0 mm
12:25 30.2 °C 18.3 °C 1014.8 hPa South 11.1 km/h 11.1 km/h 49 % 0.0 mm
12:30 30.4 °C 18.5 °C 1014.8 hPa East 7.9 km/h 7.9 km/h 49 % 0.0 mm
12:35 30.7 °C 18.4 °C 1014.8 hPa ESE 7.4 km/h 7.4 km/h 48 % 0.0 mm
12:40 30.5 °C 18.2 °C 1014.8 hPa ESE 9.3 km/h 9.3 km/h 48 % 0.0 mm
12:45 30.3 °C 17.1 °C 1014.8 hPa ESE 5.8 km/h 5.8 km/h 45 % 0.0 mm
12:50 30.7 °C 18.1 °C 1014.8 hPa South 11.1 km/h 11.1 km/h 47 % 0.0 mm
12:55 31.4 °C 18.4 °C 1014.8 hPa SSE 7.4 km/h 7.4 km/h 46 % 0.0 mm
12:56 31.6 °C 18.6 °C 1014.8 hPa ESE 9.5 km/h 9.5 km/h 46 % 0.0 mm
13:01 30.9 °C 18.6 °C 1014.8 hPa ESE 13.0 km/h 13.0 km/h 48 % 0.0 mm
13:06 30.9 °C 18.9 °C 1014.8 hPa ENE 9.3 km/h 9.3 km/h 49 % 0.0 mm
13:11 30.6 °C 18.7 °C 1014.8 hPa ESE 11.1 km/h 11.1 km/h 49 % 0.0 mm
13:16 31.0 °C 19.1 °C 1014.8 hPa East 11.1 km/h 11.1 km/h 49 % 0.0 mm
13:21 31.0 °C 18.7 °C 1014.8 hPa ESE 15.1 km/h 15.1 km/h 48 % 0.0 mm
13:26 31.0 °C 18.4 °C 1014.8 hPa ESE 13.7 km/h 13.7 km/h 47 % 0.0 mm
13:31 31.4 °C 18.4 °C 1014.8 hPa ESE 14.8 km/h 14.8 km/h 46 % 0.0 mm
13:36 31.0 °C 18.0 °C 1014.8 hPa ESE 10.3 km/h 10.3 km/h 46 % 0.0 mm
13:41 31.2 °C 18.9 °C 1014.8 hPa ESE 16.9 km/h 16.9 km/h 48 % 0.0 mm
13:46 31.1 °C 18.8 °C 1014.8 hPa ESE 14.8 km/h 14.8 km/h 48 % 0.0 mm
13:51 31.1 °C 19.1 °C 1014.8 hPa SE 16.7 km/h 16.7 km/h 49 % 0.0 mm
13:56 30.9 °C 19.3 °C 1013.8 hPa SSW 13.0 km/h 13.0 km/h 50 % 0.0 mm
14:01 30.6 °C 19.3 °C 1013.8 hPa East 16.7 km/h 16.7 km/h 51 % 0.0 mm
14:06 30.7 °C 19.4 °C 1013.8 hPa ESE 13.0 km/h 13.0 km/h 51 % 0.0 mm
14:11 30.9 °C 19.6 °C 1014.8 hPa ESE 11.1 km/h 11.1 km/h 51 % 0.0 mm
14:16 30.8 °C 19.2 °C 1014.8 hPa SE 16.7 km/h 16.7 km/h 50 % 0.0 mm
14:21 31.0 °C 18.7 °C 1014.8 hPa ESE 11.9 km/h 11.9 km/h 48 % 0.0 mm
14:26 31.2 °C 19.2 °C 1014.8 hPa ENE 9.0 km/h 9.0 km/h 49 % 0.0 mm
14:31 30.8 °C 18.8 °C 1014.8 hPa SE 11.1 km/h 11.1 km/h 49 % 0.0 mm
14:36 31.2 °C 19.2 °C 1014.8 hPa SE 6.4 km/h 6.4 km/h 49 % 0.0 mm
14:41 30.7 °C 18.8 °C 1014.8 hPa East 14.8 km/h 14.8 km/h 49 % 0.0 mm
14:46 30.8 °C 18.8 °C 1014.8 hPa ESE 7.4 km/h 7.6 km/h 49 % 0.0 mm
14:51 31.3 °C 19.0 °C 1014.8 hPa SSE 9.3 km/h 9.3 km/h 48 % 0.0 mm
14:56 30.9 °C 18.6 °C 1014.8 hPa SE 13.0 km/h 13.0 km/h 48 % 0.0 mm
15:01 31.1 °C 18.8 °C 1014.8 hPa ENE 18.5 km/h 18.5 km/h 48 % 0.0 mm
15:06 31.2 °C 18.6 °C 1014.8 hPa ESE 18.5 km/h 18.5 km/h 47 % 0.0 mm
15:11 30.9 °C 18.6 °C 1014.8 hPa SW 14.8 km/h 14.8 km/h 48 % 0.0 mm
15:16 31.1 °C 18.8 °C 1014.8 hPa ESE 9.3 km/h 9.3 km/h 48 % 0.0 mm
15:21 30.7 °C 18.4 °C 1014.8 hPa ESE 13.0 km/h 13.0 km/h 48 % 0.0 mm
15:26 30.3 °C 18.4 °C 1014.8 hPa East 20.4 km/h 20.4 km/h 49 % 0.0 mm
15:31 30.4 °C 18.5 °C 1014.8 hPa ESE 13.0 km/h 13.0 km/h 49 % 0.0 mm
15:36 30.4 °C 18.5 °C 1014.8 hPa SSE 14.8 km/h 14.8 km/h 49 % 0.0 mm
15:41 30.4 °C 18.8 °C 1013.8 hPa ENE 14.8 km/h 14.8 km/h 50 % 0.0 mm
15:46 30.6 °C 19.0 °C 1013.8 hPa ESE 13.0 km/h 13.0 km/h 50 % 0.0 mm
15:51 30.1 °C 18.6 °C 1013.8 hPa ESE 16.4 km/h 16.4 km/h 50 % 0.0 mm
15:56 29.9 °C 18.3 °C 1014.8 hPa ESE 13.0 km/h 13.0 km/h 50 % 0.0 mm
16:01 29.8 °C 18.3 °C 1014.8 hPa SE 16.4 km/h 16.4 km/h 50 % 0.0 mm
16:06 29.9 °C 18.3 °C 1014.8 hPa East 13.0 km/h 13.0 km/h 50 % 0.0 mm
16:11 30.1 °C 18.6 °C 1014.8 hPa SW 9.3 km/h 9.3 km/h 50 % 0.0 mm
16:16 29.8 °C 18.6 °C 1014.8 hPa ESE 16.9 km/h 16.9 km/h 51 % 0.0 mm
16:21 29.8 °C 18.6 °C 1014.8 hPa SSE 14.8 km/h 14.8 km/h 51 % 0.0 mm
16:26 29.9 °C 18.3 °C 1013.8 hPa ESE 13.0 km/h 13.0 km/h 50 % 0.0 mm
16:31 29.8 °C 18.3 °C 1013.8 hPa ESE 13.0 km/h 13.0 km/h 50 % 0.0 mm
16:36 30.1 °C 18.6 °C 1013.8 hPa ESE 11.1 km/h 11.1 km/h 50 % 0.0 mm
16:41 30.2 °C 18.6 °C 1014.8 hPa ESE 11.1 km/h 11.1 km/h 50 % 0.0 mm
16:46 30.3 °C 18.4 °C 1014.8 hPa ESE 20.4 km/h 20.4 km/h 49 % 0.0 mm
16:51 30.4 °C 18.8 °C 1014.8 hPa ESE 10.3 km/h 10.3 km/h 50 % 0.0 mm
16:56 30.0 °C 18.4 °C 1013.8 hPa ESE 13.0 km/h 13.0 km/h 50 % 0.0 mm
17:01 30.3 °C 18.7 °C 1013.8 hPa ESE 9.3 km/h 9.3 km/h 50 % 0.0 mm
17:06 30.1 °C 18.6 °C 1013.8 hPa ESE 20.4 km/h 20.4 km/h 50 % 0.0 mm
17:11 30.3 °C 18.7 °C 1013.8 hPa ENE 13.0 km/h 13.0 km/h 50 % 0.0 mm
17:16 30.3 °C 18.7 °C 1013.8 hPa ESE 13.0 km/h 13.0 km/h 50 % 0.0 mm
17:21 30.0 °C 18.4 °C 1013.8 hPa ESE 11.1 km/h 11.1 km/h 50 % 0.0 mm
17:26 30.0 °C 18.4 °C 1013.8 hPa ESE 18.0 km/h 18.0 km/h 50 % 0.0 mm
17:31 29.7 °C 18.5 °C 1013.8 hPa ESE 13.0 km/h 13.0 km/h 51 % 0.0 mm
17:36 30.0 °C 18.4 °C 1013.8 hPa SSE 9.3 km/h 9.3 km/h 50 % 0.0 mm
17:41 29.8 °C 18.3 °C 1013.8 hPa NNE 11.1 km/h 11.1 km/h 50 % 0.0 mm
17:46 29.7 °C 18.2 °C 1013.8 hPa ESE 13.0 km/h 13.0 km/h 50 % 0.0 mm
17:51 29.8 °C 18.3 °C 1013.8 hPa ESE 13.0 km/h 13.0 km/h 50 % 0.0 mm
17:56 29.5 °C 18.0 °C 1013.8 hPa ESE 11.9 km/h 11.9 km/h 50 % 0.0 mm
18:01 29.6 °C 17.8 °C 1013.8 hPa ESE 9.3 km/h 9.3 km/h 49 % 0.0 mm
18:06 29.6 °C 17.8 °C 1013.8 hPa ENE 10.0 km/h 10.0 km/h 49 % 0.0 mm
18:11 29.6 °C 17.8 °C 1013.8 hPa East 11.1 km/h 11.1 km/h 49 % 0.0 mm
18:16 29.5 °C 17.7 °C 1013.8 hPa ESE 15.6 km/h 15.6 km/h 49 % 0.0 mm
18:21 29.3 °C 17.5 °C 1013.8 hPa ESE 16.9 km/h 16.9 km/h 49 % 0.0 mm
18:26 29.2 °C 17.7 °C 1013.8 hPa East 13.0 km/h 13.0 km/h 50 % 0.0 mm
18:31 29.1 °C 17.6 °C 1013.8 hPa ENE 16.7 km/h 16.7 km/h 50 % 0.0 mm
18:36 29.1 °C 17.9 °C 1013.8 hPa East 14.8 km/h 14.8 km/h 51 % 0.0 mm
18:42 28.9 °C 18.1 °C 1013.8 hPa ENE 16.7 km/h 16.7 km/h 52 % 0.0 mm
18:47 28.9 °C 18.1 °C 1013.8 hPa SE 14.8 km/h 14.8 km/h 52 % 0.0 mm
18:52 28.9 °C 18.3 °C 1013.8 hPa SE 13.0 km/h 13.0 km/h 53 % 0.0 mm
18:57 28.6 °C 18.4 °C 1013.8 hPa SE 13.7 km/h 13.7 km/h 54 % 0.0 mm
19:02 28.3 °C 18.4 °C 1013.8 hPa SE 16.7 km/h 16.7 km/h 55 % 0.0 mm
19:07 28.1 °C 18.5 °C 1013.8 hPa ENE 13.0 km/h 13.0 km/h 56 % 0.0 mm
19:12 28.0 °C 18.7 °C 1013.8 hPa ESE 11.1 km/h 11.1 km/h 57 % 0.0 mm
19:17 27.7 °C 18.7 °C 1013.8 hPa ESE 16.7 km/h 16.7 km/h 58 % 0.0 mm
19:22 27.5 °C 18.8 °C 1013.8 hPa ESE 14.8 km/h 14.8 km/h 59 % 0.0 mm
19:27 27.3 °C 18.8 °C 1013.8 hPa ESE 13.0 km/h 13.0 km/h 60 % 0.0 mm
19:32 27.2 °C 18.8 °C 1013.8 hPa East 11.1 km/h 11.1 km/h 60 % 0.0 mm
19:37 27.1 °C 18.9 °C 1013.8 hPa ESE 13.0 km/h 13.0 km/h 61 % 0.0 mm
19:42 26.9 °C 19.3 °C 1013.8 hPa East 13.0 km/h 13.0 km/h 63 % 0.0 mm
19:47 26.7 °C 19.3 °C 1013.8 hPa ESE 14.8 km/h 14.8 km/h 64 % 0.0 mm
19:52 26.7 °C 19.3 °C 1013.8 hPa ESE 7.9 km/h 7.9 km/h 64 % 0.0 mm
19:57 26.6 °C 19.2 °C 1013.8 hPa ESE 5.6 km/h 5.6 km/h 64 % 0.0 mm
20:02 26.5 °C 18.9 °C 1013.8 hPa ENE 3.7 km/h   63 % 0.0 mm
20:07 26.5 °C 19.1 °C 1013.8 hPa ESE 5.6 km/h 5.6 km/h 64 % 0.0 mm
20:12 26.4 °C 19.1 °C 1014.8 hPa NE 3.7 km/h 3.7 km/h 64 % 0.0 mm
20:15 24.2 °C 19.5 °C 1014.8 hPa East 3.2 km/h 3.2 km/h 75 % 0.0 mm
20:17 26.4 °C 19.1 °C 1014.8 hPa ENE 3.7 km/h 3.7 km/h 64 % 0.0 mm
20:22 26.3 °C 18.9 °C 1014.8 hPa ENE 3.7 km/h 3.7 km/h 64 % 0.0 mm
20:25 24.1 °C 19.4 °C 1014.8 hPa East 3.2 km/h 3.2 km/h 75 % 0.0 mm
20:27 26.2 °C 18.8 °C 1014.8 hPa NE 1.9 km/h 2.3 km/h 64 % 0.0 mm
20:32 26.2 °C 18.8 °C 1014.8 hPa Calm     64 % 0.0 mm
20:35 24.0 °C 19.3 °C 1014.8 hPa ENE 3.2 km/h 4.8 km/h 75 % 0.0 mm
20:37 26.2 °C 18.8 °C 1014.8 hPa WSW 3.7 km/h 3.7 km/h 64 % 0.0 mm
20:42 26.3 °C 18.9 °C 1014.8 hPa WSW 5.6 km/h 5.6 km/h 64 % 0.0 mm
20:45 24.0 °C 19.5 °C 1013.8 hPa East 1.6 km/h 4.8 km/h 76 % 0.0 mm
20:47 26.2 °C 18.8 °C 1014.8 hPa SW 5.6 km/h 5.6 km/h 64 % 0.0 mm
20:52 26.2 °C 18.8 °C 1014.8 hPa SW 5.8 km/h 5.8 km/h 64 % 0.0 mm
20:55 23.9 °C 19.4 °C 1013.8 hPa Calm   4.8 km/h 76 % 0.0 mm
20:57 26.2 °C 19.1 °C 1014.8 hPa SW 3.7 km/h 3.7 km/h 65 % 0.0 mm
21:02 26.1 °C 19.0 °C 1014.8 hPa SW 3.7 km/h 3.7 km/h 65 % 0.0 mm
21:05 23.9 °C 19.2 °C 1014.8 hPa NNE 1.6 km/h 3.2 km/h 75 % 0.0 mm
21:07 26.0 °C 18.9 °C 1014.8 hPa SW 3.7 km/h 3.7 km/h 65 % 0.0 mm
21:12 26.0 °C 18.9 °C 1014.8 hPa SW 3.7 km/h 3.7 km/h 65 % 0.0 mm
21:15 23.8 °C 19.3 °C 1014.8 hPa Calm   3.2 km/h 76 % 0.0 mm
21:17 25.9 °C 19.1 °C 1014.8 hPa SW 4.2 km/h 4.2 km/h 66 % 0.0 mm
21:22 25.8 °C 18.9 °C 1014.8 hPa WSW 4.2 km/h 4.2 km/h 66 % 0.0 mm
21:25 23.7 °C 19.2 °C 1014.8 hPa West 3.2 km/h 3.2 km/h 76 % 0.0 mm
21:27 25.7 °C 18.9 °C 1014.8 hPa SW 3.7 km/h 3.7 km/h 66 % 0.0 mm
21:32 25.7 °C 18.9 °C 1014.8 hPa SW 5.6 km/h 5.6 km/h 66 % 0.0 mm
21:35 23.7 °C 19.4 °C 1014.8 hPa Calm   1.6 km/h 77 % 0.0 mm
21:37 25.5 °C 18.9 °C 1014.8 hPa SW 4.2 km/h 4.2 km/h 67 % 0.0 mm
21:42 25.4 °C 18.8 °C 1015.8 hPa WSW 5.6 km/h 5.6 km/h 67 % 0.0 mm
21:43 25.4 °C 18.8 °C 1015.8 hPa West 5.6 km/h 5.6 km/h 67 % 0.0 mm
21:45 23.7 °C 19.4 °C 1014.8 hPa Calm     77 % 0.0 mm
21:48 25.3 °C 18.7 °C 1015.8 hPa SW 7.4 km/h 7.4 km/h 67 % 0.0 mm
21:53 25.2 °C 18.6 °C 1015.8 hPa SW 9.3 km/h 9.3 km/h 67 % 0.0 mm
21:55 23.6 °C 19.3 °C 1014.8 hPa Calm     77 % 0.0 mm
21:58 25.2 °C 18.9 °C 1015.8 hPa SW 5.6 km/h 5.6 km/h 68 % 0.0 mm
22:03 25.1 °C 18.8 °C 1015.8 hPa SW 3.7 km/h   68 % 0.0 mm
22:05 23.4 °C 19.1 °C 1014.8 hPa Calm   3.2 km/h 77 % 0.0 mm
22:08 25.0 °C 18.7 °C 1015.8 hPa SW 3.7 km/h 3.7 km/h 68 % 0.0 mm
22:13 25.0 °C 18.7 °C 1015.8 hPa SW 3.7 km/h   68 % 0.0 mm
22:15 23.2 °C 18.9 °C 1014.8 hPa Calm     77 % 0.0 mm
22:18 24.9 °C 18.8 °C 1015.8 hPa West 5.6 km/h 5.6 km/h 69 % 0.0 mm
22:23 24.9 °C 19.1 °C 1015.8 hPa SW 3.7 km/h 3.7 km/h 70 % 0.0 mm
22:25 23.1 °C 18.8 °C 1014.8 hPa Calm   4.8 km/h 77 % 0.0 mm
22:28 24.8 °C 18.9 °C 1014.8 hPa West 3.7 km/h 3.7 km/h 70 % 0.0 mm
22:33 24.8 °C 18.9 °C 1014.8 hPa WSW 3.7 km/h 3.7 km/h 70 % 0.0 mm
22:35 23.1 °C 19.1 °C 1014.8 hPa Calm   3.2 km/h 78 % 0.0 mm
22:38 24.7 °C 18.8 °C 1014.8 hPa West 3.7 km/h 3.7 km/h 70 % 0.0 mm
22:43 24.6 °C 19.0 °C 1015.8 hPa SW 1.9 km/h   71 % 0.0 mm
22:45 23.1 °C 18.8 °C 1013.8 hPa SW 1.6 km/h 3.2 km/h 77 % 0.0 mm
22:48 24.5 °C 18.9 °C 1015.8 hPa SW 1.9 km/h   71 % 0.0 mm
22:53 24.5 °C 18.9 °C 1015.8 hPa South 1.9 km/h   71 % 0.0 mm
22:55 23.0 °C 18.9 °C 1013.8 hPa SW 1.6 km/h 3.2 km/h 78 % 0.0 mm
22:58 24.4 °C 18.8 °C 1014.8 hPa SSE 1.9 km/h 1.9 km/h 71 % 0.0 mm
23:03 24.3 °C 18.7 °C 1014.8 hPa Calm     71 % 0.0 mm
23:05 22.8 °C 18.9 °C 1013.8 hPa Calm   1.6 km/h 79 % 0.0 mm
23:08 24.3 °C 18.9 °C 1014.8 hPa SSE 1.9 km/h   72 % 0.0 mm
23:13 24.3 °C 18.9 °C 1014.8 hPa Calm     72 % 0.0 mm
23:15 22.8 °C 18.9 °C 1013.8 hPa SW 1.6 km/h 3.2 km/h 79 % 0.0 mm
23:18 24.3 °C 19.2 °C 1014.8 hPa South 1.9 km/h   73 % 0.0 mm
23:23 24.3 °C 19.2 °C 1014.8 hPa Calm     73 % 0.0 mm
23:25 22.7 °C 19.1 °C 1013.8 hPa SW 1.6 km/h 3.2 km/h 80 % 0.0 mm
23:28 24.3 °C 19.2 °C 1014.8 hPa ENE 2.6 km/h   73 % 0.0 mm
23:33 24.2 °C 19.1 °C 1014.8 hPa ENE 1.9 km/h 2.3 km/h 73 % 0.0 mm
23:35 22.7 °C 19.1 °C 1013.8 hPa Calm   3.2 km/h 80 % 0.0 mm
23:38 24.2 °C 19.1 °C 1014.8 hPa Calm     73 % 0.0 mm
23:43 24.1 °C 18.9 °C 1014.8 hPa Calm     73 % 0.0 mm
23:45 22.6 °C 19.2 °C 1013.8 hPa Calm   1.6 km/h 81 % 0.0 mm
23:48 24.1 °C 18.9 °C 1014.8 hPa ENE 1.9 km/h   73 % 0.0 mm
23:53 24.1 °C 18.9 °C 1014.8 hPa Calm     73 % 0.0 mm
23:55 22.6 °C 19.2 °C 1013.8 hPa ESE 1.6 km/h 1.6 km/h 81 % 0.0 mm
23:58 24.1 °C 19.2 °C 1014.8 hPa ENE 1.9 km/h   74 % 0.0 mm
Meteo Sesrovires
Elogis d' Weather Underground - 3.75 mb

Guio original per  Jim McMurry - jmcmurry@mwt.net Adaptat per a la plantilla per  Wim van der Kuil - Leuven-Template.eu

Trobareu la nostra informacio del temps tambe a:

Weather Underground

AWEKAS